Time;durP1;ratioP1;P1;durP2;ratioP2;P2;SDS_P1;SDS_P2;PMS_P1;PMS_P2;Temp;Humidity;BMP_temperature;BMP_pressure;BME280_temperature;BME280_humidity;BME280_pressure;Samples;Min_cycle;Max_cycle;Signal;HPM_P1;HPM_P2
2022/09/23 00:01:21;;;;;;;;;;;10.10;99.90;;;;;;5073179;28;19931;-83
2022/09/23 00:03:47;;;;;;;;;;;9.80;99.90;;;;;;5055590;28;19924;-84
2022/09/23 00:06:13;;;;;;;;;;;9.80;99.90;;;;;;5054970;28;19960;-84
2022/09/23 00:08:39;;;;;;;;;;;9.80;99.90;;;;;;5072512;28;20006;-86
2022/09/23 00:11:06;;;;;;;;;;;9.80;99.90;;;;;;5072987;28;19920;-84
2022/09/23 00:13:32;;;;;;;;;;;9.90;99.90;;;;;;5072933;28;19924;-85
2022/09/23 00:16:00;;;;;;;;;;;9.80;99.90;;;;;;5055367;28;19954;-85
2022/09/23 00:18:26;;;;;;;;;;;9.70;99.90;;;;;;5054828;28;19928;-85
2022/09/23 00:20:51;;;;;;;;;;;9.90;99.90;;;;;;5072672;28;19933;-84
2022/09/23 00:23:17;;;;;;;;;;;9.60;99.90;;;;;;5072318;28;20348;-84
2022/09/23 00:25:43;;;;;;;;;;;9.80;99.90;;;;;;5054689;28;20022;-83
2022/09/23 00:28:08;;;;;;;;;;;9.60;99.90;;;;;;5072870;28;19928;-86
2022/09/23 00:30:34;;;;;;;;;;;9.70;99.90;;;;;;5072763;28;19916;-84
2022/09/23 00:32:59;;;;;;;;;;;9.60;99.90;;;;;;5072663;28;20349;-84
2022/09/23 00:35:26;;;;;;;;;;;9.50;99.90;;;;;;5054542;28;19960;-84
2022/09/23 00:37:51;;;;;;;;;;;9.50;99.90;;;;;;5072233;28;19964;-85
2022/09/23 00:40:17;;;;;;;;;;;9.50;99.90;;;;;;5054444;28;20435;-85
2022/09/23 00:42:46;;;;;;;;;;;9.50;99.90;;;;;;5054412;28;20363;-84
2022/09/23 00:45:12;;;;;;;;;;;9.50;99.90;;;;;;5054416;28;19970;-83
2022/09/23 00:47:52;;;;;;;;;;;9.50;99.90;;;;;;5037830;28;19919;-85
2022/09/23 00:50:21;;;;;;;;;;;9.50;99.90;;;;;;5071977;28;19947;-84
2022/09/23 00:52:48;;;;;;;;;;;9.40;99.90;;;;;;5072057;28;19927;-84
2022/09/23 00:55:18;;;;;;;;;;;9.40;99.90;;;;;;5071784;28;20572;-83
2022/09/23 00:57:44;;;;;;;;;;;9.40;99.90;;;;;;5054215;28;19970;-84
2022/09/23 01:00:11;;;;;;;;;;;9.40;99.90;;;;;;5072429;28;19927;-83
2022/09/23 01:02:37;;;;;;;;;;;9.40;99.90;;;;;;5072409;28;20290;-84
2022/09/23 01:05:03;;;;;;;;;;;9.40;99.90;;;;;;5071839;28;20011;-85
2022/09/23 01:07:29;;;;;;;;;;;9.40;99.90;;;;;;5054113;28;19990;-84
2022/09/23 01:09:55;;;;;;;;;;;9.40;99.90;;;;;;5071620;28;19964;-83
2022/09/23 01:12:30;;;;;;;;;;;9.40;99.90;;;;;;5053774;28;20298;-85
2022/09/23 01:15:01;;;;;;;;;;;9.40;99.90;;;;;;5053876;28;19920;-85
2022/09/23 01:17:32;;;;;;;;;;;9.40;99.90;;;;;;5071513;28;19931;-84
2022/09/23 01:20:15;;;;;;;;;;;9.40;99.90;;;;;;5071732;28;19920;-85
2022/09/23 01:22:46;;;;;;;;;;;9.40;99.90;;;;;;5053790;28;19916;-84
2022/09/23 01:25:31;;;;;;;;;;;9.60;99.90;;;;;;5071537;28;19920;-85
2022/09/23 01:27:56;;;;;;;;;;;9.40;99.90;;;;;;5071555;28;19927;-88
2022/09/23 01:30:32;;;;;;;;;;;9.90;99.90;;;;;;5071867;28;19920;-85
2022/09/23 01:32:58;;;;;;;;;;;9.50;99.90;;;;;;5071607;28;19924;-85
2022/09/23 01:35:39;;;;;;;;;;;9.50;99.90;;;;;;5054086;28;19921;-84
2022/09/23 01:38:24;;;;;;;;;;;9.50;99.90;;;;;;5071584;28;19928;-84
2022/09/23 01:40:49;;;;;;;;;;;9.50;99.90;;;;;;5036450;28;19934;-85
2022/09/23 01:43:21;;;;;;;;;;;9.50;99.90;;;;;;5071409;28;19924;-84
2022/09/23 01:45:47;;;;;;;;;;;9.50;99.90;;;;;;5037060;28;19942;-83
2022/09/23 01:48:17;;;;;;;;;;;9.60;99.90;;;;;;5053117;28;19927;-88
2022/09/23 01:50:57;;;;;;;;;;;9.60;99.90;;;;;;5036669;28;19927;-86
2022/09/23 01:53:27;;;;;;;;;;;9.60;99.90;;;;;;5053510;28;20371;-89
2022/09/23 01:55:57;;;;;;;;;;;9.90;99.90;;;;;;5071230;28;19966;-84
2022/09/23 01:58:25;;;;;;;;;;;9.60;99.90;;;;;;5070917;28;19920;-88
2022/09/23 02:00:57;;;;;;;;;;;10.10;99.90;;;;;;5053320;28;19971;-84
2022/09/23 02:03:26;;;;;;;;;;;9.70;99.90;;;;;;5070221;28;20368;-88
2022/09/23 02:05:55;;;;;;;;;;;9.70;99.90;;;;;;5071002;28;19947;-83
2022/09/23 02:08:33;;;;;;;;;;;9.70;99.90;;;;;;5053457;28;20405;-85
2022/09/23 02:11:10;;;;;;;;;;;9.70;99.90;;;;;;5072300;28;20050;-84
2022/09/23 02:13:42;;;;;;;;;;;9.70;99.90;;;;;;5070804;28;20460;-88
2022/09/23 02:16:15;;;;;;;;;;;9.70;99.90;;;;;;5053567;28;19967;-85
2022/09/23 02:18:44;;;;;;;;;;;9.70;99.90;;;;;;5071149;28;20291;-84
2022/09/23 02:21:11;;;;;;;;;;;9.70;99.90;;;;;;5071081;28;19920;-86
2022/09/23 02:23:41;;;;;;;;;;;9.70;99.90;;;;;;5053145;28;20426;-84
2022/09/23 02:26:07;;;;;;;;;;;9.70;99.90;;;;;;5071047;28;19921;-85
2022/09/23 02:28:32;;;;;;;;;;;9.70;99.90;;;;;;5052482;28;20311;-83
2022/09/23 02:31:06;;;;;;;;;;;9.60;99.90;;;;;;5070750;28;19936;-84
2022/09/23 02:33:42;;;;;;;;;;;9.70;99.90;;;;;;5070913;28;19970;-84
2022/09/23 02:36:28;;;;;;;;;;;9.60;99.90;;;;;;5070987;28;20307;-84
2022/09/23 02:38:56;;;;;;;;;;;9.60;99.90;;;;;;5052599;28;19930;-90
2022/09/23 02:41:25;;;;;;;;;;;9.60;99.90;;;;;;5070535;28;20368;-85
2022/09/23 02:43:56;;;;;;;;;;;9.50;99.90;;;;;;5052036;28;19920;-85
2022/09/23 02:46:21;;;;;;;;;;;9.50;99.90;;;;;;5070905;28;20628;-87
2022/09/23 02:48:49;;;;;;;;;;;9.50;99.90;;;;;;5053055;28;19925;-91
2022/09/23 02:51:14;;;;;;;;;;;9.40;99.90;;;;;;5053116;28;20359;-84
2022/09/23 02:53:40;;;;;;;;;;;9.50;99.90;;;;;;5070876;28;19982;-84
2022/09/23 02:56:19;;;;;;;;;;;9.90;99.90;;;;;;5052837;28;19920;-85
2022/09/23 02:58:50;;;;;;;;;;;9.40;99.90;;;;;;5052236;28;19924;-85
2022/09/23 03:01:30;;;;;;;;;;;9.50;99.90;;;;;;5052212;28;19927;-84
2022/09/23 03:04:09;;;;;;;;;;;9.40;99.90;;;;;;5070359;28;19920;-85
2022/09/23 03:06:48;;;;;;;;;;;9.40;99.90;;;;;;5070454;28;19924;-84
2022/09/23 03:09:14;;;;;;;;;;;9.40;99.90;;;;;;5070414;28;19924;-85
2022/09/23 03:11:43;;;;;;;;;;;9.50;99.90;;;;;;5048937;28;19927;-83
2022/09/23 03:14:16;;;;;;;;;;;9.40;99.90;;;;;;5050612;28;19929;-83
2022/09/23 03:16:50;;;;;;;;;;;9.40;99.90;;;;;;5053565;28;19920;-84
2022/09/23 03:19:27;;;;;;;;;;;9.40;99.90;;;;;;5054094;28;19925;-85
2022/09/23 03:21:59;;;;;;;;;;;9.30;99.90;;;;;;5054558;28;19928;-83
2022/09/23 03:24:26;;;;;;;;;;;9.30;99.90;;;;;;5054342;28;19920;-84
2022/09/23 03:26:52;;;;;;;;;;;9.30;99.90;;;;;;5053998;28;19924;-86
2022/09/23 03:29:19;;;;;;;;;;;9.30;99.90;;;;;;5054093;28;19931;-89
2022/09/23 03:31:45;;;;;;;;;;;9.30;99.90;;;;;;5053517;28;19921;-87
2022/09/23 03:34:16;;;;;;;;;;;9.30;99.90;;;;;;5052483;28;20043;-85
2022/09/23 03:36:52;;;;;;;;;;;9.20;99.90;;;;;;5053748;28;19921;-85
2022/09/23 03:39:39;;;;;;;;;;;9.20;99.90;;;;;;5052691;28;19928;-85
2022/09/23 03:42:17;;;;;;;;;;;9.20;99.90;;;;;;5053630;28;19924;-84
2022/09/23 03:44:44;;;;;;;;;;;9.20;99.90;;;;;;5052218;28;19920;-86
2022/09/23 03:47:11;;;;;;;;;;;9.30;99.90;;;;;;5053536;28;19959;-85
2022/09/23 03:49:38;;;;;;;;;;;9.00;99.90;;;;;;5053997;28;19967;-90
2022/09/23 03:52:04;;;;;;;;;;;9.10;99.90;;;;;;5052337;28;19921;-85
2022/09/23 03:54:29;;;;;;;;;;;9.10;99.90;;;;;;5052279;28;20598;-86
2022/09/23 03:56:58;;;;;;;;;;;9.10;99.90;;;;;;5053530;28;19970;-87
2022/09/23 03:59:24;;;;;;;;;;;9.10;99.90;;;;;;5053519;28;19921;-84
2022/09/23 04:01:50;;;;;;;;;;;9.10;99.90;;;;;;5053260;28;19920;-86
2022/09/23 04:04:15;;;;;;;;;;;9.40;99.90;;;;;;5053376;28;19925;-88
2022/09/23 04:06:41;;;;;;;;;;;9.00;99.90;;;;;;5052303;28;19939;-84
2022/09/23 04:09:07;;;;;;;;;;;9.00;99.90;;;;;;5053181;28;20253;-86
2022/09/23 04:11:32;;;;;;;;;;;9.00;99.90;;;;;;5064116;28;19946;-87
2022/09/23 04:13:58;;;;;;;;;;;9.00;99.90;;;;;;5073275;28;19920;-84
2022/09/23 04:16:23;;;;;;;;;;;9.00;99.90;;;;;;5073934;28;19924;-88
2022/09/23 04:18:49;;;;;;;;;;;9.00;99.90;;;;;;5054758;28;19932;-87
2022/09/23 04:21:15;;;;;;;;;;;9.20;99.90;;;;;;5073382;28;19925;-85
2022/09/23 04:23:40;;;;;;;;;;;9.00;99.90;;;;;;5038945;28;19924;-84
2022/09/23 04:26:06;;;;;;;;;;;9.00;99.90;;;;;;5055167;28;19967;-92
2022/09/23 04:28:31;;;;;;;;;;;9.30;99.90;;;;;;5072365;28;20011;-92
2022/09/23 04:30:57;;;;;;;;;;;8.90;99.90;;;;;;5072933;28;19920;-83
2022/09/23 04:33:23;;;;;;;;;;;9.00;99.90;;;;;;5072625;28;19965;-86
2022/09/23 04:35:50;;;;;;;;;;;8.90;99.90;;;;;;5054955;28;20736;-87
2022/09/23 04:38:16;;;;;;;;;;;9.30;99.90;;;;;;5072892;28;19932;-85
2022/09/23 04:40:42;;;;;;;;;;;8.90;99.90;;;;;;5072619;28;19950;-84
2022/09/23 04:43:08;;;;;;;;;;;9.40;99.90;;;;;;5054626;28;20430;-89
2022/09/23 04:45:33;;;;;;;;;;;9.40;99.90;;;;;;5055044;28;19928;-84
2022/09/23 04:47:59;;;;;;;;;;;8.90;99.90;;;;;;5038659;28;19924;-84
2022/09/23 04:50:25;;;;;;;;;;;8.90;99.90;;;;;;5054142;28;19924;-84
2022/09/23 04:52:50;;;;;;;;;;;8.90;99.90;;;;;;5056401;28;19920;-85
2022/09/23 04:55:17;;;;;;;;;;;8.90;99.90;;;;;;5073749;28;19928;-88
2022/09/23 04:57:43;;;;;;;;;;;8.80;99.90;;;;;;5054506;28;19932;-84
2022/09/23 05:00:11;;;;;;;;;;;9.10;99.90;;;;;;5055308;28;20003;-89
2022/09/23 05:02:46;;;;;;;;;;;8.90;99.90;;;;;;5072839;28;19925;-85
2022/09/23 05:05:12;;;;;;;;;;;8.90;99.90;;;;;;5072188;28;19928;-86
2022/09/23 05:07:38;;;;;;;;;;;8.90;99.90;;;;;;5072369;28;20399;-85
2022/09/23 05:10:04;;;;;;;;;;;8.90;99.90;;;;;;5072353;28;19924;-86
2022/09/23 05:12:29;;;;;;;;;;;8.90;99.90;;;;;;5071774;28;19920;-84
2022/09/23 05:14:55;;;;;;;;;;;8.80;99.90;;;;;;5071621;28;19928;-85
2022/09/23 05:17:21;;;;;;;;;;;9.20;99.90;;;;;;5053456;28;19920;-84
2022/09/23 05:19:46;;;;;;;;;;;8.80;99.90;;;;;;5071582;28;20029;-85
2022/09/23 05:22:12;;;;;;;;;;;8.80;99.90;;;;;;5053622;28;20019;-85
2022/09/23 05:24:37;;;;;;;;;;;8.80;99.90;;;;;;5071826;28;19924;-89
2022/09/23 05:27:05;;;;;;;;;;;8.80;99.90;;;;;;5072074;28;19994;-86
2022/09/23 05:29:31;;;;;;;;;;;8.80;99.90;;;;;;5053931;28;19959;-87
2022/09/23 05:31:56;;;;;;;;;;;8.80;99.90;;;;;;5072064;28;20005;-85
2022/09/23 05:34:23;;;;;;;;;;;8.80;99.90;;;;;;5071686;28;19923;-91
2022/09/23 05:36:49;;;;;;;;;;;8.80;99.90;;;;;;5071231;28;19964;-85
2022/09/23 05:39:14;;;;;;;;;;;8.80;99.90;;;;;;5071597;28;20434;-88
2022/09/23 05:41:42;;;;;;;;;;;9.20;99.90;;;;;;5053443;28;19920;-85
2022/09/23 05:44:08;;;;;;;;;;;8.80;99.90;;;;;;5071629;28;19924;-83
2022/09/23 05:46:34;;;;;;;;;;;8.90;99.90;;;;;;5071562;28;19924;-83
2022/09/23 05:49:00;;;;;;;;;;;8.80;99.90;;;;;;5071229;28;20398;-84
2022/09/23 05:51:26;;;;;;;;;;;8.80;99.90;;;;;;5071060;28;19990;-85
2022/09/23 05:53:53;;;;;;;;;;;8.80;99.90;;;;;;5071121;28;19920;-85
2022/09/23 05:56:20;;;;;;;;;;;8.80;99.90;;;;;;5071232;28;20006;-84
2022/09/23 05:58:47;;;;;;;;;;;8.80;99.90;;;;;;5053131;28;19935;-85
2022/09/23 06:01:19;;;;;;;;;;;8.80;99.90;;;;;;5053338;28;19924;-90
2022/09/23 06:03:46;;;;;;;;;;;8.80;99.90;;;;;;5071415;28;19928;-83
2022/09/23 06:06:13;;;;;;;;;;;8.80;99.90;;;;;;5071412;28;19967;-83
2022/09/23 06:08:39;;;;;;;;;;;8.90;99.90;;;;;;5071731;28;19964;-83
2022/09/23 06:11:07;;;;;;;;;;;8.90;99.90;;;;;;5071131;28;20391;-83
2022/09/23 06:13:34;;;;;;;;;;;9.00;99.90;;;;;;5052771;28;19930;-90
2022/09/23 06:16:00;;;;;;;;;;;9.00;99.90;;;;;;5036272;28;20012;-84
2022/09/23 06:18:25;;;;;;;;;;;9.00;99.90;;;;;;5070984;28;20042;-83
2022/09/23 06:20:51;;;;;;;;;;;9.10;99.90;;;;;;5053231;28;19924;-80
2022/09/23 06:23:16;;;;;;;;;;;9.10;99.90;;;;;;5070505;28;19916;-83
2022/09/23 06:25:42;;;;;;;;;;;9.10;99.90;;;;;;5070907;28;19924;-86
2022/09/23 06:28:09;;;;;;;;;;;9.10;99.90;;;;;;5070900;28;19927;-82
2022/09/23 06:30:35;;;;;;;;;;;9.40;99.90;;;;;;5070685;28;19967;-89
2022/09/23 06:33:01;;;;;;;;;;;9.40;99.90;;;;;;5071574;28;20509;-82
2022/09/23 06:35:27;;;;;;;;;;;9.20;99.90;;;;;;5070894;28;19947;-83
2022/09/23 06:37:53;;;;;;;;;;;9.60;99.90;;;;;;5052546;28;19927;-82
2022/09/23 06:40:19;;;;;;;;;;;9.40;99.90;;;;;;5070701;28;19921;-82
2022/09/23 06:42:44;;;;;;;;;;;9.40;99.90;;;;;;5070554;28;19969;-85
2022/09/23 06:45:13;;;;;;;;;;;9.90;99.90;;;;;;5070591;28;20018;-84
2022/09/23 06:47:39;;;;;;;;;;;9.50;99.90;;;;;;5070711;28;20010;-84
2022/09/23 06:50:05;;;;;;;;;;;9.60;99.90;;;;;;5053580;28;19920;-83
2022/09/23 06:52:31;;;;;;;;;;;9.60;99.90;;;;;;5074763;28;20019;-84
2022/09/23 06:54:56;;;;;;;;;;;9.70;99.90;;;;;;5074316;28;19935;-84
2022/09/23 06:57:23;;;;;;;;;;;9.80;99.90;;;;;;5056894;28;19928;-82
2022/09/23 06:59:49;;;;;;;;;;;9.70;99.90;;;;;;5056341;28;19920;-84
2022/09/23 07:02:14;;;;;;;;;;;9.80;99.90;;;;;;5074611;28;19924;-84
2022/09/23 07:04:40;;;;;;;;;;;9.80;99.90;;;;;;5056297;28;19921;-84
2022/09/23 07:07:05;;;;;;;;;;;9.90;99.90;;;;;;5074509;28;19978;-83
2022/09/23 07:09:31;;;;;;;;;;;9.90;99.90;;;;;;5074185;28;20709;-83
2022/09/23 07:11:56;;;;;;;;;;;9.90;99.90;;;;;;5055966;28;19932;-83
2022/09/23 07:14:25;;;;;;;;;;;10.00;99.90;;;;;;5075221;28;20007;-95
2022/09/23 07:16:52;;;;;;;;;;;10.00;99.90;;;;;;5056889;28;19960;-83
2022/09/23 07:19:17;;;;;;;;;;;10.10;99.90;;;;;;5074264;28;19971;-83
2022/09/23 07:21:43;;;;;;;;;;;10.10;99.90;;;;;;5074222;28;19960;-81
2022/09/23 07:24:08;;;;;;;;;;;10.20;99.90;;;;;;5074179;28;19924;-93
2022/09/23 07:26:34;;;;;;;;;;;10.30;99.90;;;;;;5039178;28;19924;-82
2022/09/23 07:29:06;;;;;;;;;;;10.30;99.90;;;;;;5056572;28;19924;-83
2022/09/23 07:31:33;;;;;;;;;;;10.40;99.90;;;;;;5056469;28;20291;-83
2022/09/23 07:33:59;;;;;;;;;;;10.40;99.90;;;;;;5055790;28;19924;-84
2022/09/23 07:36:27;;;;;;;;;;;10.50;99.90;;;;;;5055736;28;19955;-86
2022/09/23 07:38:54;;;;;;;;;;;10.50;99.90;;;;;;5074049;28;19920;-81
2022/09/23 07:41:19;;;;;;;;;;;10.60;99.90;;;;;;5073545;28;19968;-81
2022/09/23 07:43:45;;;;;;;;;;;10.90;99.90;;;;;;5074530;28;19982;-84
2022/09/23 07:46:13;;;;;;;;;;;10.80;99.90;;;;;;5056651;28;19920;-83
2022/09/23 07:48:39;;;;;;;;;;;10.90;99.90;;;;;;5074008;28;19931;-93
2022/09/23 07:51:25;;;;;;;;;;;11.20;99.90;;;;;;5055947;28;19924;-82
2022/09/23 07:53:51;;;;;;;;;;;11.00;99.90;;;;;;5073194;28;19974;-84
2022/09/23 07:56:18;;;;;;;;;;;11.10;99.90;;;;;;5055778;28;19917;-85
2022/09/23 07:58:44;;;;;;;;;;;11.20;99.90;;;;;;5073629;28;20577;-86
2022/09/23 08:01:10;;;;;;;;;;;11.30;99.90;;;;;;5073116;28;19924;-82
2022/09/23 08:03:36;;;;;;;;;;;11.50;99.90;;;;;;5073596;28;20291;-92
2022/09/23 08:06:09;;;;;;;;;;;11.40;99.90;;;;;;5073903;28;19920;-83
2022/09/23 08:08:38;;;;;;;;;;;11.50;99.90;;;;;;5074058;28;20565;-86
2022/09/23 08:11:04;;;;;;;;;;;11.50;99.90;;;;;;5055726;28;19950;-83
2022/09/23 08:13:30;;;;;;;;;;;11.60;99.90;;;;;;5055433;28;19959;-80
2022/09/23 08:15:57;;;;;;;;;;;11.70;99.90;;;;;;5073380;28;19924;-87
2022/09/23 08:18:22;;;;;;;;;;;11.80;99.90;;;;;;5055886;28;19966;-80
2022/09/23 08:20:48;;;;;;;;;;;11.80;99.90;;;;;;5055549;28;19920;-87
2022/09/23 08:23:14;;;;;;;;;;;11.80;99.90;;;;;;5073799;28;19916;-91
2022/09/23 08:25:40;;;;;;;;;;;12.00;99.90;;;;;;5038609;28;19931;-82
2022/09/23 08:28:07;;;;;;;;;;;12.20;99.90;;;;;;5072974;28;19928;-90
2022/09/23 08:30:32;;;;;;;;;;;12.20;99.90;;;;;;5055602;28;19969;-82
2022/09/23 08:32:58;;;;;;;;;;;12.10;99.90;;;;;;5073892;28;20373;-95
2022/09/23 08:35:26;;;;;;;;;;;12.60;99.90;;;;;;5038458;28;19920;-83
2022/09/23 08:37:52;;;;;;;;;;;12.30;99.90;;;;;;5055019;28;19930;-83
2022/09/23 08:40:18;;;;;;;;;;;12.40;99.90;;;;;;5073149;28;19924;-95
2022/09/23 08:42:44;;;;;;;;;;;12.50;99.90;;;;;;5073175;28;20276;-88
2022/09/23 08:45:16;;;;;;;;;;;12.60;99.90;;;;;;5072901;28;19920;-84
2022/09/23 08:47:46;;;;;;;;;;;12.70;99.90;;;;;;5056131;28;20011;-85
2022/09/23 08:50:19;;;;;;;;;;;13.00;99.90;;;;;;5072528;28;19924;-85
2022/09/23 08:52:53;;;;;;;;;;;12.90;99.90;;;;;;5072836;28;19936;-87
2022/09/23 08:55:23;;;;;;;;;;;13.00;99.90;;;;;;5072257;28;20015;-80
2022/09/23 08:58:07;;;;;;;;;;;13.30;99.90;;;;;;5072244;28;20011;-82
2022/09/23 09:00:39;;;;;;;;;;;13.20;99.90;;;;;;5072186;28;19931;-82
2022/09/23 09:03:17;;;;;;;;;;;13.30;99.90;;;;;;5074088;28;19971;-94
2022/09/23 09:05:42;;;;;;;;;;;13.50;99.90;;;;;;5072207;28;19924;-83
2022/09/23 09:08:09;;;;;;;;;;;13.40;99.90;;;;;;5072537;28;19978;-80
2022/09/23 09:10:40;;;;;;;;;;;13.70;99.90;;;;;;5073265;28;19932;-92
2022/09/23 09:13:09;;;;;;;;;;;13.60;99.90;;;;;;5053573;28;19924;-80
2022/09/23 09:15:41;;;;;;;;;;;13.70;99.90;;;;;;5071625;28;19924;-87
2022/09/23 09:18:11;;;;;;;;;;;13.80;99.90;;;;;;5053771;28;20407;-86
2022/09/23 09:20:39;;;;;;;;;;;13.90;99.90;;;;;;5071884;28;19920;-80
2022/09/23 09:23:14;;;;;;;;;;;14.00;99.90;;;;;;5071657;28;20398;-86
2022/09/23 09:25:44;;;;;;;;;;;14.10;99.90;;;;;;5071814;28;20440;-82
2022/09/23 09:28:21;;;;;;;;;;;14.20;99.90;;;;;;5053706;28;19935;-86
2022/09/23 09:30:49;;;;;;;;;;;14.10;99.90;;;;;;5053159;28;19952;-92
2022/09/23 09:33:17;;;;;;;;;;;14.20;99.90;;;;;;5053810;28;19924;-82
2022/09/23 09:35:52;;;;;;;;;;;14.40;99.90;;;;;;5071659;28;19983;-86
2022/09/23 09:38:20;;;;;;;;;;;14.40;99.90;;;;;;5053456;28;19924;-94
2022/09/23 09:40:46;;;;;;;;;;;14.50;99.90;;;;;;5036935;28;19924;-88
2022/09/23 09:43:20;;;;;;;;;;;14.50;99.90;;;;;;5053567;28;19920;-79
2022/09/23 09:46:01;;;;;;;;;;;14.50;99.90;;;;;;5053202;28;20419;-82
2022/09/23 09:48:36;;;;;;;;;;;14.50;99.90;;;;;;5071451;28;19966;-79
2022/09/23 09:51:21;;;;;;;;;;;14.60;99.90;;;;;;5071323;28;19928;-82
2022/09/23 09:53:50;;;;;;;;;;;14.60;99.90;;;;;;5071279;28;20014;-81
2022/09/23 09:56:18;;;;;;;;;;;14.60;99.90;;;;;;5071328;28;20003;-85
2022/09/23 09:58:46;;;;;;;;;;;14.60;99.90;;;;;;5071386;28;19943;-81
2022/09/23 10:01:25;;;;;;;;;;;14.70;99.90;;;;;;5071386;28;19920;-85
2022/09/23 10:03:52;;;;;;;;;;;14.70;99.90;;;;;;5070789;28;19935;-83
2022/09/23 10:06:19;;;;;;;;;;;14.70;99.90;;;;;;5036489;28;19963;-82
2022/09/23 10:09:02;;;;;;;;;;;14.70;99.90;;;;;;5071606;28;20015;-86
2022/09/23 10:11:27;;;;;;;;;;;14.80;99.90;;;;;;5070893;28;19920;-83
2022/09/23 10:14:00;;;;;;;;;;;15.00;99.90;;;;;;5053130;28;20268;-88
2022/09/23 10:16:26;;;;;;;;;;;14.90;99.90;;;;;;5071158;28;19928;-86
2022/09/23 10:18:55;;;;;;;;;;;14.90;99.90;;;;;;5052583;28;19920;-84
2022/09/23 10:21:22;;;;;;;;;;;14.90;99.90;;;;;;5071131;28;20005;-81
2022/09/23 10:23:51;;;;;;;;;;;14.90;99.90;;;;;;5052888;28;19954;-84
2022/09/23 10:26:24;;;;;;;;;;;15.00;99.90;;;;;;5071005;28;19995;-84
2022/09/23 10:28:51;;;;;;;;;;;15.00;99.90;;;;;;5070782;28;19954;-84
2022/09/23 10:31:21;;;;;;;;;;;15.00;99.90;;;;;;5071239;28;20026;-83
2022/09/23 10:33:48;;;;;;;;;;;15.00;99.90;;;;;;5070858;28;19967;-85
2022/09/23 10:36:17;;;;;;;;;;;15.10;99.90;;;;;;5071052;28;20007;-84
2022/09/23 10:38:43;;;;;;;;;;;15.00;99.90;;;;;;5053417;28;19926;-80
2022/09/23 10:47:50;;;;;;;;;;;15.30;99.90;;;;;;5008544;28;19972;-84
2022/09/23 10:50:37;;;;;;;;;;;15.40;99.90;;;;;;4992086;28;19995;-83
2022/09/23 10:53:23;;;;;;;;;;;15.50;99.90;;;;;;4992077;28;19976;-82
2022/09/23 10:56:00;;;;;;;;;;;15.70;99.90;;;;;;4969213;28;20364;-84
2022/09/23 10:58:49;;;;;;;;;;;15.70;99.90;;;;;;5008545;28;20024;-82
2022/09/23 11:01:17;;;;;;;;;;;15.70;99.90;;;;;;4969492;28;19991;-80
2022/09/23 11:04:01;;;;;;;;;;;15.80;99.90;;;;;;4953418;28;19922;-79
2022/09/23 11:06:44;;;;;;;;;;;15.80;99.90;;;;;;4946011;29;20390;-80
2022/09/23 11:09:19;;;;;;;;;;;15.90;99.90;;;;;;4950179;28;19942;-81
2022/09/23 11:11:45;;;;;;;;;;;16.00;99.90;;;;;;4950050;28;19922;-81
2022/09/23 11:14:19;;;;;;;;;;;16.00;99.90;;;;;;4933928;29;20317;-82
2022/09/23 11:17:04;;;;;;;;;;;16.00;99.90;;;;;;4960621;28;19930;-82
2022/09/23 11:19:45;;;;;;;;;;;16.00;99.90;;;;;;4969391;28;20086;-81
2022/09/23 11:22:19;;;;;;;;;;;16.00;99.90;;;;;;4965507;28;19926;-79
2022/09/23 11:24:59;;;;;;;;;;;16.00;99.90;;;;;;4969571;28;19930;-83
2022/09/23 11:27:43;;;;;;;;;;;16.00;99.90;;;;;;4953972;28;19922;-85
2022/09/23 11:30:10;;;;;;;;;;;16.00;99.90;;;;;;4969468;28;19962;-84
2022/09/23 11:32:38;;;;;;;;;;;16.00;99.90;;;;;;4936958;28;19981;-82
2022/09/23 11:35:12;;;;;;;;;;;16.00;99.90;;;;;;4952844;28;19922;-84
2022/09/23 11:37:42;;;;;;;;;;;16.00;99.90;;;;;;4974235;28;19925;-82
2022/09/23 11:40:10;;;;;;;;;;;16.10;99.90;;;;;;5035820;28;19925;-81
2022/09/23 11:42:39;;;;;;;;;;;16.10;99.90;;;;;;5061047;28;20337;-82
2022/09/23 11:45:19;;;;;;;;;;;16.10;99.90;;;;;;5074436;28;19925;-89
2022/09/23 11:47:48;;;;;;;;;;;16.10;99.90;;;;;;5073359;28;20315;-84
2022/09/23 11:50:24;;;;;;;;;;;16.20;99.90;;;;;;5073920;28;19920;-83
2022/09/23 11:53:04;;;;;;;;;;;16.20;99.90;;;;;;5038832;28;20379;-82
2022/09/23 11:55:33;;;;;;;;;;;16.30;99.90;;;;;;5073275;28;20018;-85
2022/09/23 11:58:04;;;;;;;;;;;16.30;99.90;;;;;;5073397;28;19924;-82
2022/09/23 12:00:33;;;;;;;;;;;16.30;99.90;;;;;;5055887;28;19925;-82
2022/09/23 12:02:59;;;;;;;;;;;16.30;99.90;;;;;;5055306;28;19920;-81
2022/09/23 12:05:28;;;;;;;;;;;16.30;99.90;;;;;;5054597;28;19925;-83
2022/09/23 12:07:56;;;;;;;;;;;16.40;99.90;;;;;;5072972;28;19921;-84
2022/09/23 12:10:24;;;;;;;;;;;16.20;99.90;;;;;;5054995;28;19917;-82
2022/09/23 12:12:56;;;;;;;;;;;16.30;99.90;;;;;;5073128;28;19931;-83
2022/09/23 12:15:33;;;;;;;;;;;16.30;99.90;;;;;;5073522;28;19920;-83
2022/09/23 12:18:02;;;;;;;;;;;16.30;99.90;;;;;;5072973;28;20003;-82
2022/09/23 12:20:47;;;;;;;;;;;16.30;99.90;;;;;;5073551;28;19920;-86
2022/09/23 12:23:12;;;;;;;;;;;16.40;99.90;;;;;;5071065;28;19924;-83
2022/09/23 12:25:44;;;;;;;;;;;16.30;99.90;;;;;;5062140;28;19925;-84
2022/09/23 12:28:30;;;;;;;;;;;16.40;99.90;;;;;;5037278;28;19928;-80
2022/09/23 12:30:57;;;;;;;;;;;16.40;99.90;;;;;;5058546;28;20406;-90
2022/09/23 12:33:25;;;;;;;;;;;16.40;99.90;;;;;;5068511;28;19920;-83
2022/09/23 12:35:52;;;;;;;;;;;16.40;99.90;;;;;;5072316;28;19955;-84
2022/09/23 12:38:20;;;;;;;;;;;16.50;99.90;;;;;;5037835;28;20016;-77
2022/09/23 12:40:46;;;;;;;;;;;16.50;99.90;;;;;;5055016;28;19944;-91
2022/09/23 12:43:31;;;;;;;;;;;16.50;99.90;;;;;;5072682;28;20493;-80
2022/09/23 12:46:16;;;;;;;;;;;16.40;99.90;;;;;;5054729;28;19920;-81
2022/09/23 12:48:45;;;;;;;;;;;16.40;99.90;;;;;;5071918;28;19947;-82
2022/09/23 12:51:11;;;;;;;;;;;16.40;99.90;;;;;;5054281;28;20614;-82
2022/09/23 12:53:42;;;;;;;;;;;16.40;99.90;;;;;;5069076;28;19920;-84
2022/09/23 12:56:25;;;;;;;;;;;16.40;99.90;;;;;;5071642;28;19927;-82
2022/09/23 12:59:08;;;;;;;;;;;16.40;99.90;;;;;;5054310;28;19943;-83
2022/09/23 13:01:37;;;;;;;;;;;16.30;99.90;;;;;;5072141;28;19920;-80
2022/09/23 13:07:07;;;;;;;;;;;16.30;99.90;;;;;;5072185;28;20298;-84
2022/09/23 13:09:41;;;;;;;;;;;16.30;99.90;;;;;;5071493;28;19925;-81
2022/09/23 13:12:16;;;;;;;;;;;16.20;99.90;;;;;;5054123;28;20718;-79
2022/09/23 13:14:43;;;;;;;;;;;16.20;99.90;;;;;;5071699;28;19928;-81
2022/09/23 13:17:20;;;;;;;;;;;16.10;99.90;;;;;;5071877;28;19985;-82
2022/09/23 13:19:56;;;;;;;;;;;16.10;99.90;;;;;;5071921;28;19924;-83
2022/09/23 13:23:00;;;;;;;;;;;16.10;99.90;;;;;;5053589;28;19920;-81
2022/09/23 13:25:27;;;;;;;;;;;16.00;99.90;;;;;;5070466;28;19920;-83
2022/09/23 13:27:54;;;;;;;;;;;16.00;99.90;;;;;;5053845;28;19931;-84
2022/09/23 13:30:22;;;;;;;;;;;16.00;99.90;;;;;;5071725;28;19924;-79
2022/09/23 13:32:50;;;;;;;;;;;16.00;99.90;;;;;;5053598;28;20452;-83
2022/09/23 13:35:25;;;;;;;;;;;16.00;99.90;;;;;;5053737;28;19928;-81
2022/09/23 13:37:51;;;;;;;;;;;15.90;99.90;;;;;;5071287;28;19924;-82
2022/09/23 13:40:17;;;;;;;;;;;15.90;99.90;;;;;;5037872;28;19982;-81
2022/09/23 13:42:43;;;;;;;;;;;15.90;99.90;;;;;;5070877;28;20013;-79
2022/09/23 13:45:14;;;;;;;;;;;15.90;99.90;;;;;;5071495;28;19920;-81
2022/09/23 13:47:40;;;;;;;;;;;15.90;99.90;;;;;;5052898;28;19920;-77
2022/09/23 13:50:11;;;;;;;;;;;15.90;99.90;;;;;;5053222;28;20308;-80
2022/09/23 13:52:37;;;;;;;;;;;15.80;99.90;;;;;;5067107;28;19932;-80
2022/09/23 13:55:03;;;;;;;;;;;15.80;99.90;;;;;;5054483;28;19935;-77
2022/09/23 13:57:32;;;;;;;;;;;15.80;99.90;;;;;;5070825;28;19925;-80
2022/09/23 14:00:15;;;;;;;;;;;15.70;99.90;;;;;;5051761;28;19977;-80
2022/09/23 14:02:41;;;;;;;;;;;15.70;99.90;;;;;;5071099;28;20410;-81
2022/09/23 14:05:11;;;;;;;;;;;15.70;99.90;;;;;;5071001;28;20368;-81
2022/09/23 14:07:36;;;;;;;;;;;15.70;99.90;;;;;;5071196;28;20362;-81
2022/09/23 14:10:04;;;;;;;;;;;15.70;99.90;;;;;;5053098;28;19967;-80
2022/09/23 14:12:30;;;;;;;;;;;15.70;99.90;;;;;;5070211;28;19925;-80
2022/09/23 14:14:56;;;;;;;;;;;15.70;99.90;;;;;;5070943;28;19950;-79
2022/09/23 14:17:24;;;;;;;;;;;15.70;99.90;;;;;;5070894;28;19916;-79
2022/09/23 14:19:50;;;;;;;;;;;15.60;99.90;;;;;;5071075;28;20296;-80
2022/09/23 14:22:23;;;;;;;;;;;15.60;99.90;;;;;;5053060;28;20011;-78
2022/09/23 14:24:49;;;;;;;;;;;15.50;99.90;;;;;;5063219;28;20001;-80
2022/09/23 14:27:17;;;;;;;;;;;15.50;99.90;;;;;;5041075;28;19924;-78
2022/09/23 14:29:43;;;;;;;;;;;15.50;99.90;;;;;;5052563;28;19920;-79
2022/09/23 14:32:15;;;;;;;;;;;15.40;99.90;;;;;;5070923;28;19975;-79
2022/09/23 14:34:43;;;;;;;;;;;15.50;99.90;;;;;;5070943;28;20134;-79
2022/09/23 14:40:15;;;;;;;;;;;15.50;99.90;;;;;;5070587;28;20379;-79
2022/09/23 14:42:43;;;;;;;;;;;15.50;99.90;;;;;;5070830;28;19921;-80
2022/09/23 14:45:12;;;;;;;;;;;15.40;99.90;;;;;;5052637;28;20010;-79
2022/09/23 14:47:41;;;;;;;;;;;15.50;99.90;;;;;;5052676;28;19920;-79
2022/09/23 14:52:57;;;;;;;;;;;15.40;99.90;;;;;;5070767;28;19959;-79